sensor_id;sensor_type;location;lat;lon;timestamp;pressure;altitude;pressure_sealevel;temperature;humidity
56821;BME280;42702;50.178;20.992;2022-08-25T00:00:13;99555.87;;;21.28;73.87
56821;BME280;42702;50.178;20.992;2022-08-25T00:03:01;99551.47;;;21.23;73.92
56821;BME280;42702;50.178;20.992;2022-08-25T00:05:31;99549.55;;;21.19;73.99
56821;BME280;42702;50.178;20.992;2022-08-25T00:08:01;99548.54;;;21.18;74.14
56821;BME280;42702;50.178;20.992;2022-08-25T00:10:35;99549.12;;;21.17;74.11
56821;BME280;42702;50.178;20.992;2022-08-25T00:13:04;99548.09;;;21.16;74.20
56821;BME280;42702;50.178;20.992;2022-08-25T00:15:33;99550.11;;;21.18;74.10
56821;BME280;42702;50.178;20.992;2022-08-25T00:18:02;99546.39;;;21.18;74.23
56821;BME280;42702;50.178;20.992;2022-08-25T00:20:38;99552.33;;;21.16;74.22
56821;BME280;42702;50.178;20.992;2022-08-25T00:23:09;99551.48;;;21.15;74.18
56821;BME280;42702;50.178;20.992;2022-08-25T00:25:37;99549.61;;;21.14;74.31
56821;BME280;42702;50.178;20.992;2022-08-25T00:28:05;99551.26;;;21.12;74.25
56821;BME280;42702;50.178;20.992;2022-08-25T00:30:35;99551.38;;;21.14;74.23
56821;BME280;42702;50.178;20.992;2022-08-25T00:33:05;99550.10;;;21.10;74.26
56821;BME280;42702;50.178;20.992;2022-08-25T00:35:34;99547.85;;;21.05;74.43
56821;BME280;42702;50.178;20.992;2022-08-25T00:38:02;99545.88;;;21.01;74.55
56821;BME280;42702;50.178;20.992;2022-08-25T00:40:31;99546.92;;;20.98;74.58
56821;BME280;42702;50.178;20.992;2022-08-25T00:42:59;99548.27;;;20.95;74.55
56821;BME280;42702;50.178;20.992;2022-08-25T00:45:28;99548.31;;;20.95;74.64
56821;BME280;42702;50.178;20.992;2022-08-25T00:47:56;99545.02;;;20.93;74.69
56821;BME280;42702;50.178;20.992;2022-08-25T00:50:29;99540.72;;;20.90;74.71
56821;BME280;42702;50.178;20.992;2022-08-25T00:53:01;99542.08;;;20.87;74.84
56821;BME280;42702;50.178;20.992;2022-08-25T00:55:35;99536.08;;;20.83;74.93
56821;BME280;42702;50.178;20.992;2022-08-25T00:58:09;99532.20;;;20.79;74.87
56821;BME280;42702;50.178;20.992;2022-08-25T01:00:45;99533.62;;;20.78;74.89
56821;BME280;42702;50.178;20.992;2022-08-25T01:03:14;99535.21;;;20.78;74.98
56821;BME280;42702;50.178;20.992;2022-08-25T01:05:44;99535.80;;;20.77;74.94
56821;BME280;42702;50.178;20.992;2022-08-25T01:08:13;99536.70;;;20.77;75.01
56821;BME280;42702;50.178;20.992;2022-08-25T01:10:43;99535.54;;;20.75;74.97
56821;BME280;42702;50.178;20.992;2022-08-25T01:13:16;99535.09;;;20.73;75.08
56821;BME280;42702;50.178;20.992;2022-08-25T01:15:47;99536.28;;;20.74;75.06
56821;BME280;42702;50.178;20.992;2022-08-25T01:18:17;99538.39;;;20.75;75.06
56821;BME280;42702;50.178;20.992;2022-08-25T01:20:50;99538.03;;;20.75;75.23
56821;BME280;42702;50.178;20.992;2022-08-25T01:23:19;99538.09;;;20.78;75.26
56821;BME280;42702;50.178;20.992;2022-08-25T01:25:57;99536.08;;;20.78;75.32
56821;BME280;42702;50.178;20.992;2022-08-25T01:28:29;99536.27;;;20.78;75.12
56821;BME280;42702;50.178;20.992;2022-08-25T01:30:57;99536.73;;;20.80;75.18
56821;BME280;42702;50.178;20.992;2022-08-25T01:33:26;99533.41;;;20.79;75.11
56821;BME280;42702;50.178;20.992;2022-08-25T01:35:54;99530.43;;;20.74;75.19
56821;BME280;42702;50.178;20.992;2022-08-25T01:38:23;99526.98;;;20.72;75.32
56821;BME280;42702;50.178;20.992;2022-08-25T01:40:51;99528.41;;;20.68;75.36
56821;BME280;42702;50.178;20.992;2022-08-25T01:43:34;99532.46;;;20.68;75.45
56821;BME280;42702;50.178;20.992;2022-08-25T01:46:04;99534.88;;;20.69;75.44
56821;BME280;42702;50.178;20.992;2022-08-25T01:48:32;99530.76;;;20.70;75.47
56821;BME280;42702;50.178;20.992;2022-08-25T01:51:00;99525.34;;;20.69;75.46
56821;BME280;42702;50.178;20.992;2022-08-25T01:53:30;99524.41;;;20.69;75.46
56821;BME280;42702;50.178;20.992;2022-08-25T01:56:11;99520.77;;;20.68;75.40
56821;BME280;42702;50.178;20.992;2022-08-25T01:58:42;99518.44;;;20.69;75.33
56821;BME280;42702;50.178;20.992;2022-08-25T02:01:17;99520.48;;;20.70;75.32
56821;BME280;42702;50.178;20.992;2022-08-25T02:03:49;99519.64;;;20.70;75.24
56821;BME280;42702;50.178;20.992;2022-08-25T02:06:26;99517.91;;;20.68;75.26
56821;BME280;42702;50.178;20.992;2022-08-25T02:09:07;99516.91;;;20.67;75.33
56821;BME280;42702;50.178;20.992;2022-08-25T02:11:37;99517.13;;;20.66;75.52
56821;BME280;42702;50.178;20.992;2022-08-25T02:14:07;99519.70;;;20.68;75.26
56821;BME280;42702;50.178;20.992;2022-08-25T02:16:37;99513.61;;;20.69;75.08
56821;BME280;42702;50.178;20.992;2022-08-25T02:19:09;99515.72;;;20.70;75.10
56821;BME280;42702;50.178;20.992;2022-08-25T02:21:37;99515.06;;;20.69;75.19
56821;BME280;42702;50.178;20.992;2022-08-25T02:24:06;99515.21;;;20.65;75.29
56821;BME280;42702;50.178;20.992;2022-08-25T02:26:35;99513.48;;;20.65;75.26
56821;BME280;42702;50.178;20.992;2022-08-25T02:29:04;99512.53;;;20.66;75.17
56821;BME280;42702;50.178;20.992;2022-08-25T02:31:34;99507.70;;;20.67;75.13
56821;BME280;42702;50.178;20.992;2022-08-25T02:34:04;99504.62;;;20.68;75.14
56821;BME280;42702;50.178;20.992;2022-08-25T02:36:33;99501.11;;;20.68;75.18
56821;BME280;42702;50.178;20.992;2022-08-25T02:39:04;99499.21;;;20.67;75.08
56821;BME280;42702;50.178;20.992;2022-08-25T02:41:33;99500.89;;;20.65;75.01
56821;BME280;42702;50.178;20.992;2022-08-25T02:44:03;99497.45;;;20.62;74.83
56821;BME280;42702;50.178;20.992;2022-08-25T02:46:32;99499.78;;;20.57;74.83
56821;BME280;42702;50.178;20.992;2022-08-25T02:49:00;99497.95;;;20.54;74.73
56821;BME280;42702;50.178;20.992;2022-08-25T02:51:28;99498.39;;;20.52;74.89
56821;BME280;42702;50.178;20.992;2022-08-25T02:53:58;99501.97;;;20.52;74.91
56821;BME280;42702;50.178;20.992;2022-08-25T02:56:30;99502.05;;;20.50;74.78
56821;BME280;42702;50.178;20.992;2022-08-25T02:58:59;99504.61;;;20.47;74.81
56821;BME280;42702;50.178;20.992;2022-08-25T03:01:30;99499.07;;;20.45;74.87
56821;BME280;42702;50.178;20.992;2022-08-25T03:04:00;99494.89;;;20.43;74.76
56821;BME280;42702;50.178;20.992;2022-08-25T03:06:29;99498.20;;;20.44;74.61
56821;BME280;42702;50.178;20.992;2022-08-25T03:08:58;99494.08;;;20.42;74.59
56821;BME280;42702;50.178;20.992;2022-08-25T03:11:26;99497.90;;;20.39;74.75
56821;BME280;42702;50.178;20.992;2022-08-25T03:13:54;99496.04;;;20.37;74.68
56821;BME280;42702;50.178;20.992;2022-08-25T03:16:23;99499.85;;;20.35;74.87
56821;BME280;42702;50.178;20.992;2022-08-25T03:18:55;99499.35;;;20.34;74.79
56821;BME280;42702;50.178;20.992;2022-08-25T03:21:25;99503.36;;;20.36;74.64
56821;BME280;42702;50.178;20.992;2022-08-25T03:23:53;99507.47;;;20.34;74.74
56821;BME280;42702;50.178;20.992;2022-08-25T03:26:22;99511.88;;;20.30;74.70
56821;BME280;42702;50.178;20.992;2022-08-25T03:29:09;99514.33;;;20.27;74.84
56821;BME280;42702;50.178;20.992;2022-08-25T03:31:37;99514.26;;;20.25;74.76
56821;BME280;42702;50.178;20.992;2022-08-25T03:34:06;99509.44;;;20.22;74.81
56821;BME280;42702;50.178;20.992;2022-08-25T03:36:34;99511.52;;;20.22;74.80
56821;BME280;42702;50.178;20.992;2022-08-25T03:39:02;99511.25;;;20.20;74.89
56821;BME280;42702;50.178;20.992;2022-08-25T03:41:31;99509.05;;;20.18;74.93
56821;BME280;42702;50.178;20.992;2022-08-25T03:44:00;99509.10;;;20.17;74.96
56821;BME280;42702;50.178;20.992;2022-08-25T03:46:32;99507.33;;;20.17;75.03
56821;BME280;42702;50.178;20.992;2022-08-25T03:49:03;99508.23;;;20.16;74.88
56821;BME280;42702;50.178;20.992;2022-08-25T03:51:34;99506.81;;;20.17;74.79
56821;BME280;42702;50.178;20.992;2022-08-25T03:54:03;99503.33;;;20.15;74.90
56821;BME280;42702;50.178;20.992;2022-08-25T03:56:32;99504.48;;;20.13;74.91
56821;BME280;42702;50.178;20.992;2022-08-25T03:59:00;99498.63;;;20.09;74.90
56821;BME280;42702;50.178;20.992;2022-08-25T04:01:29;99498.06;;;20.06;75.12
56821;BME280;42702;50.178;20.992;2022-08-25T04:03:57;99497.54;;;20.05;75.10
56821;BME280;42702;50.178;20.992;2022-08-25T04:06:25;99494.15;;;20.06;74.86
56821;BME280;42702;50.178;20.992;2022-08-25T04:08:54;99496.77;;;20.06;75.06
56821;BME280;42702;50.178;20.992;2022-08-25T04:11:26;99495.58;;;20.06;75.06
56821;BME280;42702;50.178;20.992;2022-08-25T04:13:56;99496.17;;;20.04;75.05
56821;BME280;42702;50.178;20.992;2022-08-25T04:16:28;99495.92;;;20.02;75.02
56821;BME280;42702;50.178;20.992;2022-08-25T04:19:00;99495.24;;;20.01;75.15
56821;BME280;42702;50.178;20.992;2022-08-25T04:21:29;99499.99;;;20.01;74.95
56821;BME280;42702;50.178;20.992;2022-08-25T04:23:58;99497.08;;;20.00;75.05
56821;BME280;42702;50.178;20.992;2022-08-25T04:26:29;99495.59;;;19.96;75.22
56821;BME280;42702;50.178;20.992;2022-08-25T04:29:00;99498.02;;;19.93;75.27
56821;BME280;42702;50.178;20.992;2022-08-25T04:31:30;99496.96;;;19.93;75.40
56821;BME280;42702;50.178;20.992;2022-08-25T04:34:03;99495.11;;;19.95;75.51
56821;BME280;42702;50.178;20.992;2022-08-25T04:36:51;99495.21;;;20.02;75.42
56821;BME280;42702;50.178;20.992;2022-08-25T04:39:20;99492.64;;;20.04;75.47
56821;BME280;42702;50.178;20.992;2022-08-25T04:41:49;99494.17;;;20.05;75.58
56821;BME280;42702;50.178;20.992;2022-08-25T04:44:17;99495.38;;;20.06;75.57
56821;BME280;42702;50.178;20.992;2022-08-25T04:46:46;99495.38;;;20.06;75.62
56821;BME280;42702;50.178;20.992;2022-08-25T04:49:14;99495.89;;;20.07;75.58
56821;BME280;42702;50.178;20.992;2022-08-25T04:51:42;99497.92;;;20.09;75.61
56821;BME280;42702;50.178;20.992;2022-08-25T04:54:12;99496.02;;;20.08;75.76
56821;BME280;42702;50.178;20.992;2022-08-25T04:56:43;99499.25;;;20.11;75.95
56821;BME280;42702;50.178;20.992;2022-08-25T04:59:13;99499.83;;;20.14;76.11
56821;BME280;42702;50.178;20.992;2022-08-25T05:01:43;99497.66;;;20.14;76.00
56821;BME280;42702;50.178;20.992;2022-08-25T05:04:20;99498.48;;;20.17;76.02
56821;BME280;42702;50.178;20.992;2022-08-25T05:06:56;99498.64;;;20.22;76.11
56821;BME280;42702;50.178;20.992;2022-08-25T05:09:26;99498.31;;;20.16;76.23
56821;BME280;42702;50.178;20.992;2022-08-25T05:11:54;99491.92;;;20.08;76.65
56821;BME280;42702;50.178;20.992;2022-08-25T05:14:24;99489.90;;;20.06;77.09
56821;BME280;42702;50.178;20.992;2022-08-25T05:16:54;99492.08;;;20.05;77.30
56821;BME280;42702;50.178;20.992;2022-08-25T05:19:23;99493.48;;;20.05;77.43
56821;BME280;42702;50.178;20.992;2022-08-25T05:21:52;99492.28;;;20.00;77.61
56821;BME280;42702;50.178;20.992;2022-08-25T05:24:21;99490.15;;;20.00;77.81
56821;BME280;42702;50.178;20.992;2022-08-25T05:26:49;99486.76;;;20.05;77.90
56821;BME280;42702;50.178;20.992;2022-08-25T05:29:17;99487.71;;;20.03;77.76
56821;BME280;42702;50.178;20.992;2022-08-25T05:31:46;99486.79;;;20.00;77.86
56821;BME280;42702;50.178;20.992;2022-08-25T05:34:18;99484.60;;;19.97;77.96
56821;BME280;42702;50.178;20.992;2022-08-25T05:36:47;99486.11;;;19.95;78.20
56821;BME280;42702;50.178;20.992;2022-08-25T05:39:16;99487.02;;;19.94;78.27
56821;BME280;42702;50.178;20.992;2022-08-25T05:41:44;99486.65;;;19.95;78.45
56821;BME280;42702;50.178;20.992;2022-08-25T05:44:12;99485.99;;;19.98;78.54
56821;BME280;42702;50.178;20.992;2022-08-25T05:46:48;99488.91;;;20.00;78.62
56821;BME280;42702;50.178;20.992;2022-08-25T05:49:16;99486.77;;;20.00;78.72
56821;BME280;42702;50.178;20.992;2022-08-25T05:51:44;99485.23;;;19.99;78.83
56821;BME280;42702;50.178;20.992;2022-08-25T05:54:12;99482.44;;;19.98;79.05
56821;BME280;42702;50.178;20.992;2022-08-25T05:56:40;99487.55;;;19.99;79.04
56821;BME280;42702;50.178;20.992;2022-08-25T05:59:09;99490.05;;;20.03;79.10
56821;BME280;42702;50.178;20.992;2022-08-25T06:01:37;99491.70;;;20.09;79.26
56821;BME280;42702;50.178;20.992;2022-08-25T06:04:24;99492.41;;;20.18;79.33
56821;BME280;42702;50.178;20.992;2022-08-25T06:06:54;99495.17;;;20.23;79.32
56821;BME280;42702;50.178;20.992;2022-08-25T06:09:22;99495.44;;;20.30;79.21
56821;BME280;42702;50.178;20.992;2022-08-25T06:11:51;99496.20;;;20.38;79.06
56821;BME280;42702;50.178;20.992;2022-08-25T06:14:22;99496.00;;;20.42;79.12
56821;BME280;42702;50.178;20.992;2022-08-25T06:16:51;99499.10;;;20.48;79.25
56821;BME280;42702;50.178;20.992;2022-08-25T06:19:20;99500.50;;;20.53;79.36
56821;BME280;42702;50.178;20.992;2022-08-25T06:21:55;99502.20;;;20.55;79.24
56821;BME280;42702;50.178;20.992;2022-08-25T06:24:25;99501.55;;;20.61;79.38
56821;BME280;42702;50.178;20.992;2022-08-25T06:26:55;99502.42;;;20.71;79.35
56821;BME280;42702;50.178;20.992;2022-08-25T06:29:24;99500.20;;;20.81;79.32
56821;BME280;42702;50.178;20.992;2022-08-25T06:31:52;99503.02;;;20.89;79.45
56821;BME280;42702;50.178;20.992;2022-08-25T06:34:21;99498.39;;;20.98;79.27
56821;BME280;42702;50.178;20.992;2022-08-25T06:36:51;99503.05;;;21.08;78.79
56821;BME280;42702;50.178;20.992;2022-08-25T06:39:20;99505.68;;;21.17;78.65
56821;BME280;42702;50.178;20.992;2022-08-25T06:41:55;99507.80;;;21.24;78.33
56821;BME280;42702;50.178;20.992;2022-08-25T06:44:25;99504.53;;;21.30;78.07
56821;BME280;42702;50.178;20.992;2022-08-25T06:46:54;99499.92;;;21.34;78.18
56821;BME280;42702;50.178;20.992;2022-08-25T06:49:22;99500.84;;;21.37;77.90
56821;BME280;42702;50.178;20.992;2022-08-25T06:51:57;99503.75;;;21.43;77.68
56821;BME280;42702;50.178;20.992;2022-08-25T06:54:26;99503.14;;;21.45;77.50
56821;BME280;42702;50.178;20.992;2022-08-25T06:56:54;99506.20;;;21.49;77.78
56821;BME280;42702;50.178;20.992;2022-08-25T06:59:24;99505.04;;;21.51;77.57
56821;BME280;42702;50.178;20.992;2022-08-25T07:02:00;99505.39;;;21.55;77.63
56821;BME280;42702;50.178;20.992;2022-08-25T07:04:31;99508.71;;;21.59;77.50
56821;BME280;42702;50.178;20.992;2022-08-25T07:07:00;99511.08;;;21.65;77.35
56821;BME280;42702;50.178;20.992;2022-08-25T07:09:28;99511.08;;;21.69;77.33
56821;BME280;42702;50.178;20.992;2022-08-25T07:11:56;99519.05;;;21.73;77.12
56821;BME280;42702;50.178;20.992;2022-08-25T07:14:25;99517.76;;;21.78;77.20
56821;BME280;42702;50.178;20.992;2022-08-25T07:16:53;99518.64;;;21.81;77.32
56821;BME280;42702;50.178;20.992;2022-08-25T07:19:21;99517.24;;;21.85;77.10
56821;BME280;42702;50.178;20.992;2022-08-25T07:21:51;99512.25;;;21.89;76.91
56821;BME280;42702;50.178;20.992;2022-08-25T07:24:21;99508.55;;;21.92;76.99
56821;BME280;42702;50.178;20.992;2022-08-25T07:26:50;99511.21;;;21.96;77.11
56821;BME280;42702;50.178;20.992;2022-08-25T07:29:23;99509.61;;;21.99;76.68
56821;BME280;42702;50.178;20.992;2022-08-25T07:32:02;99509.42;;;22.03;76.81
56821;BME280;42702;50.178;20.992;2022-08-25T07:34:30;99511.86;;;22.08;76.79
56821;BME280;42702;50.178;20.992;2022-08-25T07:37:21;99511.39;;;22.14;76.48
56821;BME280;42702;50.178;20.992;2022-08-25T07:40:20;99510.66;;;22.18;76.43
56821;BME280;42702;50.178;20.992;2022-08-25T07:42:51;99508.37;;;22.21;76.25
56821;BME280;42702;50.178;20.992;2022-08-25T07:45:22;99506.63;;;22.24;76.37
56821;BME280;42702;50.178;20.992;2022-08-25T07:48:08;99508.30;;;22.27;76.32
56821;BME280;42702;50.178;20.992;2022-08-25T07:50:39;99507.38;;;22.31;76.37
56821;BME280;42702;50.178;20.992;2022-08-25T07:53:12;99507.35;;;22.35;76.16
56821;BME280;42702;50.178;20.992;2022-08-25T07:55:41;99503.19;;;22.40;76.10
56821;BME280;42702;50.178;20.992;2022-08-25T07:58:13;99501.25;;;22.44;76.21
56821;BME280;42702;50.178;20.992;2022-08-25T08:00:46;99501.77;;;22.47;76.15
56821;BME280;42702;50.178;20.992;2022-08-25T08:03:18;99502.09;;;22.51;75.91
56821;BME280;42702;50.178;20.992;2022-08-25T08:06:09;99503.56;;;22.57;75.75
56821;BME280;42702;50.178;20.992;2022-08-25T08:08:40;99501.19;;;22.62;75.57
56821;BME280;42702;50.178;20.992;2022-08-25T08:11:22;99500.55;;;22.67;75.72
56821;BME280;42702;50.178;20.992;2022-08-25T08:13:52;99500.29;;;22.72;75.76
56821;BME280;42702;50.178;20.992;2022-08-25T08:16:23;99496.98;;;22.78;75.73
56821;BME280;42702;50.178;20.992;2022-08-25T08:18:53;99497.82;;;22.82;75.41
56821;BME280;42702;50.178;20.992;2022-08-25T08:21:24;99493.10;;;22.84;75.05
56821;BME280;42702;50.178;20.992;2022-08-25T08:23:55;99496.43;;;22.88;75.12
56821;BME280;42702;50.178;20.992;2022-08-25T08:26:26;99494.05;;;22.96;75.18
56821;BME280;42702;50.178;20.992;2022-08-25T08:29:18;99492.06;;;23.04;74.94
56821;BME280;42702;50.178;20.992;2022-08-25T08:31:49;99494.05;;;23.07;74.39
56821;BME280;42702;50.178;20.992;2022-08-25T08:34:17;99496.09;;;23.12;74.39
56821;BME280;42702;50.178;20.992;2022-08-25T08:36:45;99496.23;;;23.16;74.22
56821;BME280;42702;50.178;20.992;2022-08-25T08:39:13;99491.06;;;23.16;73.89
56821;BME280;42702;50.178;20.992;2022-08-25T08:41:48;99495.63;;;23.21;74.07
56821;BME280;42702;50.178;20.992;2022-08-25T08:53:35;99490.69;;;23.55;74.09
56821;BME280;42702;50.178;20.992;2022-08-25T08:56:13;99490.21;;;23.64;73.81
56821;BME280;42702;50.178;20.992;2022-08-25T08:58:56;99491.96;;;23.70;73.61
56821;BME280;42702;50.178;20.992;2022-08-25T09:01:34;99489.85;;;23.80;73.40
56821;BME280;42702;50.178;20.992;2022-08-25T09:04:14;99489.21;;;23.88;73.13
56821;BME280;42702;50.178;20.992;2022-08-25T09:06:48;99489.15;;;23.96;73.06
56821;BME280;42702;50.178;20.992;2022-08-25T09:09:30;99486.29;;;24.02;72.68
56821;BME280;42702;50.178;20.992;2022-08-25T09:15:13;99486.02;;;24.13;72.53
56821;BME280;42702;50.178;20.992;2022-08-25T09:18:07;99487.24;;;24.22;72.53
56821;BME280;42702;50.178;20.992;2022-08-25T09:21:06;99483.92;;;24.34;72.21
56821;BME280;42702;50.178;20.992;2022-08-25T09:29:23;99477.40;;;24.63;71.48
56821;BME280;42702;50.178;20.992;2022-08-25T09:31:57;99476.06;;;24.70;70.55
56821;BME280;42702;50.178;20.992;2022-08-25T09:34:31;99470.38;;;24.73;70.82
56821;BME280;42702;50.178;20.992;2022-08-25T09:37:00;99471.30;;;24.81;71.05
56821;BME280;42702;50.178;20.992;2022-08-25T09:39:29;99465.40;;;24.90;71.18
56821;BME280;42702;50.178;20.992;2022-08-25T09:41:58;99464.36;;;25.01;71.28
56821;BME280;42702;50.178;20.992;2022-08-25T09:44:47;99459.54;;;25.15;70.95
56821;BME280;42702;50.178;20.992;2022-08-25T09:49:58;99449.81;;;25.37;70.47
56821;BME280;42702;50.178;20.992;2022-08-25T09:52:34;99447.04;;;25.47;69.72
56821;BME280;42702;50.178;20.992;2022-08-25T10:05:34;99431.69;;;26.07;69.18
56821;BME280;42702;50.178;20.992;2022-08-25T10:08:23;99434.83;;;26.21;69.16
56821;BME280;42702;50.178;20.992;2022-08-25T10:10:54;99435.27;;;26.41;68.72
56821;BME280;42702;50.178;20.992;2022-08-25T10:13:46;99434.71;;;26.54;67.79
56821;BME280;42702;50.178;20.992;2022-08-25T10:16:24;99436.71;;;26.67;67.23
56821;BME280;42702;50.178;20.992;2022-08-25T10:21:39;99431.40;;;26.92;66.48
56821;BME280;42702;50.178;20.992;2022-08-25T10:24:11;99431.35;;;27.00;66.74
56821;BME280;42702;50.178;20.992;2022-08-25T10:33:03;99425.59;;;27.34;66.10
56821;BME280;42702;50.178;20.992;2022-08-25T10:44:05;99414.79;;;27.71;64.37
56821;BME280;42702;50.178;20.992;2022-08-25T10:49:47;99415.71;;;27.87;63.23
56821;BME280;42702;50.178;20.992;2022-08-25T10:55:21;99416.27;;;28.04;62.89
56821;BME280;42702;50.178;20.992;2022-08-25T10:58:16;99414.35;;;28.15;62.72
56821;BME280;42702;50.178;20.992;2022-08-25T11:01:02;99411.64;;;28.25;62.15
56821;BME280;42702;50.178;20.992;2022-08-25T11:06:19;99412.52;;;28.37;62.08
56821;BME280;42702;50.178;20.992;2022-08-25T11:08:53;99408.10;;;28.40;61.67
56821;BME280;42702;50.178;20.992;2022-08-25T11:11:51;99407.95;;;28.45;61.67
56821;BME280;42702;50.178;20.992;2022-08-25T11:14:27;99401.45;;;28.43;60.69
56821;BME280;42702;50.178;20.992;2022-08-25T11:17:06;99401.70;;;28.42;61.33
56821;BME280;42702;50.178;20.992;2022-08-25T11:19:42;99397.31;;;28.45;60.86
56821;BME280;42702;50.178;20.992;2022-08-25T11:28:12;99391.83;;;28.63;60.05
56821;BME280;42702;50.178;20.992;2022-08-25T11:30:42;99391.86;;;28.68;59.47
56821;BME280;42702;50.178;20.992;2022-08-25T11:33:16;99391.37;;;28.74;59.32
56821;BME280;42702;50.178;20.992;2022-08-25T11:35:51;99382.84;;;28.79;58.89
56821;BME280;42702;50.178;20.992;2022-08-25T11:51:42;99374.08;;;29.13;56.11
56821;BME280;42702;50.178;20.992;2022-08-25T12:02:29;99358.67;;;29.28;54.16
56821;BME280;42702;50.178;20.992;2022-08-25T12:05:00;99358.76;;;29.33;53.73
56821;BME280;42702;50.178;20.992;2022-08-25T12:08:04;99359.39;;;29.39;53.72
56821;BME280;42702;50.178;20.992;2022-08-25T12:11:04;99360.09;;;29.43;52.68
56821;BME280;42702;50.178;20.992;2022-08-25T12:13:42;99355.84;;;29.45;52.45
56821;BME280;42702;50.178;20.992;2022-08-25T12:16:31;99350.59;;;29.46;51.83
56821;BME280;42702;50.178;20.992;2022-08-25T12:19:23;99349.25;;;29.48;51.72
56821;BME280;42702;50.178;20.992;2022-08-25T12:22:38;99345.16;;;29.50;51.27
56821;BME280;42702;50.178;20.992;2022-08-25T12:28:06;99342.36;;;29.54;50.45
56821;BME280;42702;50.178;20.992;2022-08-25T12:30:30;99338.88;;;29.57;50.45
56821;BME280;42702;50.178;20.992;2022-08-25T12:35:56;99337.30;;;29.61;50.31
56821;BME280;42702;50.178;20.992;2022-08-25T12:41:10;99333.14;;;29.65;49.80
56821;BME280;42702;50.178;20.992;2022-08-25T12:43:41;99333.83;;;29.68;49.32
56821;BME280;42702;50.178;20.992;2022-08-25T12:49:33;99328.83;;;29.67;49.36
56821;BME280;42702;50.178;20.992;2022-08-25T12:52:12;99327.54;;;29.66;48.75
56821;BME280;42702;50.178;20.992;2022-08-25T12:54:53;99320.33;;;29.60;48.74
56821;BME280;42702;50.178;20.992;2022-08-25T13:00:16;99315.95;;;29.52;48.12
56821;BME280;42702;50.178;20.992;2022-08-25T13:03:08;99310.85;;;29.50;48.38
56821;BME280;42702;50.178;20.992;2022-08-25T13:11:39;99306.73;;;29.46;47.89
56821;BME280;42702;50.178;20.992;2022-08-25T13:14:24;99303.45;;;29.44;48.12
56821;BME280;42702;50.178;20.992;2022-08-25T13:17:02;99298.27;;;29.44;48.43
56821;BME280;42702;50.178;20.992;2022-08-25T13:19:30;99299.63;;;29.45;48.60
56821;BME280;42702;50.178;20.992;2022-08-25T13:22:11;99298.40;;;29.47;48.26
56821;BME280;42702;50.178;20.992;2022-08-25T13:24:45;99295.48;;;29.48;48.31
56821;BME280;42702;50.178;20.992;2022-08-25T13:27:23;99294.21;;;29.48;48.03
56821;BME280;42702;50.178;20.992;2022-08-25T13:29:56;99290.64;;;29.49;48.05
56821;BME280;42702;50.178;20.992;2022-08-25T13:32:29;99289.50;;;29.50;47.56
56821;BME280;42702;50.178;20.992;2022-08-25T13:35:14;99287.42;;;29.47;47.20
56821;BME280;42702;50.178;20.992;2022-08-25T13:37:47;99288.14;;;29.47;47.32
56821;BME280;42702;50.178;20.992;2022-08-25T13:42:59;99285.64;;;29.47;47.47
56821;BME280;42702;50.178;20.992;2022-08-25T13:45:31;99284.86;;;29.50;47.53
56821;BME280;42702;50.178;20.992;2022-08-25T13:48:13;99290.19;;;29.57;47.41
56821;BME280;42702;50.178;20.992;2022-08-25T13:51:26;99292.41;;;29.67;46.86
56821;BME280;42702;50.178;20.992;2022-08-25T13:54:05;99288.08;;;29.76;46.92
56821;BME280;42702;50.178;20.992;2022-08-25T13:56:40;99284.36;;;29.84;46.88
56821;BME280;42702;50.178;20.992;2022-08-25T13:59:24;99281.52;;;29.90;46.49
56821;BME280;42702;50.178;20.992;2022-08-25T14:01:54;99281.95;;;29.91;45.84
56821;BME280;42702;50.178;20.992;2022-08-25T14:09:39;99275.14;;;29.92;44.53
56821;BME280;42702;50.178;20.992;2022-08-25T14:12:28;99267.98;;;29.90;44.56
56821;BME280;42702;50.178;20.992;2022-08-25T14:15:03;99266.95;;;29.90;44.75
56821;BME280;42702;50.178;20.992;2022-08-25T14:17:34;99268.73;;;29.90;44.58
56821;BME280;42702;50.178;20.992;2022-08-25T14:20:20;99259.56;;;29.90;44.70
56821;BME280;42702;50.178;20.992;2022-08-25T14:22:55;99258.79;;;29.95;45.10
56821;BME280;42702;50.178;20.992;2022-08-25T14:25:27;99251.80;;;30.01;44.79
56821;BME280;42702;50.178;20.992;2022-08-25T14:28:00;99250.56;;;30.05;44.33
56821;BME280;42702;50.178;20.992;2022-08-25T14:30:38;99246.54;;;30.03;43.90
56821;BME280;42702;50.178;20.992;2022-08-25T14:33:10;99247.43;;;30.05;43.43
56821;BME280;42702;50.178;20.992;2022-08-25T14:35:41;99243.36;;;30.07;43.24
56821;BME280;42702;50.178;20.992;2022-08-25T14:38:10;99243.58;;;30.12;42.59
56821;BME280;42702;50.178;20.992;2022-08-25T14:40:39;99245.48;;;30.11;41.22
56821;BME280;42702;50.178;20.992;2022-08-25T14:43:07;99242.17;;;30.08;40.70
56821;BME280;42702;50.178;20.992;2022-08-25T14:45:39;99240.36;;;30.08;40.97
56821;BME280;42702;50.178;20.992;2022-08-25T14:48:13;99240.70;;;30.10;41.62
56821;BME280;42702;50.178;20.992;2022-08-25T14:50:43;99237.30;;;30.12;42.01
56821;BME280;42702;50.178;20.992;2022-08-25T14:53:12;99238.55;;;30.17;42.10
56821;BME280;42702;50.178;20.992;2022-08-25T14:55:40;99236.95;;;30.17;41.81
56821;BME280;42702;50.178;20.992;2022-08-25T14:58:08;99237.27;;;30.17;41.31
56821;BME280;42702;50.178;20.992;2022-08-25T15:00:41;99238.36;;;30.21;41.40
56821;BME280;42702;50.178;20.992;2022-08-25T15:03:18;99239.16;;;30.28;41.47
56821;BME280;42702;50.178;20.992;2022-08-25T15:05:48;99240.28;;;30.36;40.47
56821;BME280;42702;50.178;20.992;2022-08-25T15:08:17;99240.15;;;30.38;40.19
56821;BME280;42702;50.178;20.992;2022-08-25T15:11:04;99237.80;;;30.33;39.48
56821;BME280;42702;50.178;20.992;2022-08-25T15:13:35;99237.09;;;30.27;38.95